Time;durP1;ratioP1;P1;durP2;ratioP2;P2;SDS_P1;SDS_P2;PMS_P1;PMS_P2;Temp;Humidity;BMP_temperature;BMP_pressure;BME280_temperature;BME280_humidity;BME280_pressure;Samples;Min_cycle;Max_cycle;Signal;HPM_P1;HPM_P2
2021/12/08 00:02:25;;;;;;;;;0.00;0.00;;;;;4.67;75.18;97806.81;5051190;28;8856;-54
2021/12/08 00:04:53;;;;;;;;;0.00;0.00;;;;;4.67;75.22;97805.00;5051321;28;8830;-55
2021/12/08 00:07:20;;;;;;;;;0.00;0.00;;;;;4.67;75.04;97791.84;5050385;28;8850;-55
2021/12/08 00:10:00;;;;;;;;;0.00;0.00;;;;;4.68;75.46;97787.38;5050600;28;8846;-55
2021/12/08 00:15:13;;;;;;;;;0.00;0.00;;;;;4.72;75.86;97797.50;5051145;28;9013;-55
2021/12/08 00:17:41;;;;;;;;;0.60;0.00;;;;;4.74;75.77;97771.88;5050349;28;8965;-55
2021/12/08 00:20:09;;;;;;;;;1.00;1.00;;;;;4.76;75.58;97774.34;5050209;28;8842;-54
2021/12/08 00:22:37;;;;;;;;;0.00;0.00;;;;;4.77;75.98;97750.47;5051143;28;8857;-55
2021/12/08 00:25:04;;;;;;;;;0.00;0.00;;;;;4.80;75.49;97767.81;5050890;28;9603;-55
2021/12/08 00:27:32;;;;;;;;;0.20;0.20;;;;;4.79;75.34;97772.25;5043782;28;8845;-55
2021/12/08 00:30:00;;;;;;;;;1.40;1.00;;;;;4.73;75.69;97754.34;5030162;28;8892;-54
2021/12/08 00:32:30;;;;;;;;;0.00;0.00;;;;;4.68;76.16;97774.19;5029396;28;8836;-54
2021/12/08 00:34:58;;;;;;;;;0.00;0.00;;;;;4.64;75.95;97783.38;5030881;28;8854;-54
2021/12/08 00:37:27;;;;;;;;;0.00;0.00;;;;;4.62;76.50;97778.22;5030787;28;8871;-55
2021/12/08 00:39:55;;;;;;;;;0.00;0.00;;;;;4.63;76.56;97786.97;5028935;28;8848;-54
2021/12/08 00:42:23;;;;;;;;;0.40;0.40;;;;;4.67;76.47;97775.19;5029229;28;8849;-54
2021/12/08 00:44:51;;;;;;;;;0.80;0.80;;;;;4.69;76.59;97781.13;5030593;28;9914;-55
2021/12/08 00:47:18;;;;;;;;;0.00;0.00;;;;;4.72;76.29;97747.41;5030154;28;8840;-55
2021/12/08 00:49:47;;;;;;;;;1.00;1.00;;;;;4.79;76.81;97739.81;5029462;28;8950;-54
2021/12/08 00:52:14;;;;;;;;;0.00;0.00;;;;;4.87;76.35;97734.66;5029993;28;8856;-55
2021/12/08 00:54:42;;;;;;;;;1.00;0.60;;;;;4.93;76.59;97719.09;5028606;28;8867;-55
2021/12/08 00:57:10;;;;;;;;;0.00;0.00;;;;;4.99;76.09;97717.69;5033945;28;8838;-55
2021/12/08 00:59:37;;;;;;;;;0.20;0.20;;;;;5.06;76.03;97729.34;5048654;28;8866;-55
2021/12/08 01:02:24;;;;;;;;;0.80;0.00;;;;;5.13;75.93;97712.81;5048082;28;9492;-54
2021/12/08 01:04:53;;;;;;;;;2.20;2.20;;;;;5.12;76.01;97726.97;5050511;28;8838;-54
2021/12/08 01:07:20;;;;;;;;;0.00;0.00;;;;;5.08;76.32;97744.03;5050412;28;8947;-54
2021/12/08 01:09:48;;;;;;;;;0.00;0.00;;;;;5.04;76.28;97736.56;5047991;28;8839;-54
2021/12/08 01:12:16;;;;;;;;;0.00;0.00;;;;;5.00;76.01;97737.81;5050161;28;9493;-54
2021/12/08 01:14:43;;;;;;;;;1.00;1.00;;;;;4.96;76.37;97760.19;5049489;28;8866;-54
2021/12/08 01:17:11;;;;;;;;;0.60;0.60;;;;;4.91;76.39;97734.22;5049728;28;8961;-55
2021/12/08 01:19:39;;;;;;;;;0.40;0.20;;;;;4.84;76.80;97745.47;5050182;28;8842;-55
2021/12/08 01:22:06;;;;;;;;;0.00;0.00;;;;;4.76;77.19;97746.19;5050064;28;8858;-54
2021/12/08 01:24:34;;;;;;;;;0.80;0.80;;;;;4.70;78.08;97745.91;5049939;28;8976;-54
2021/12/08 01:27:02;;;;;;;;;0.00;0.00;;;;;4.65;77.86;97769.22;5045942;28;8864;-55
2021/12/08 01:29:30;;;;;;;;;3.20;3.00;;;;;4.59;77.93;97764.50;5029997;28;8840;-54
2021/12/08 01:31:58;;;;;;;;;1.00;1.00;;;;;4.55;78.43;97768.38;5030207;28;8856;-54
2021/12/08 01:34:25;;;;;;;;;0.60;0.60;;;;;4.50;79.08;97766.16;5029791;28;8879;-55
2021/12/08 01:36:53;;;;;;;;;1.00;0.40;;;;;4.47;79.17;97755.06;5030384;28;8844;-54
2021/12/08 01:39:21;;;;;;;;;1.00;1.00;;;;;4.44;79.25;97772.00;5030211;28;8972;-55
2021/12/08 01:41:52;;;;;;;;;0.00;0.00;;;;;4.41;79.80;97774.06;5029817;28;8840;-54
2021/12/08 01:47:05;;;;;;;;;0.00;0.00;;;;;4.33;80.08;97766.84;5030483;28;8856;-53
2021/12/08 01:49:33;;;;;;;;;0.20;0.20;;;;;4.31;80.25;97773.19;5029968;28;8998;-55
2021/12/08 01:52:01;;;;;;;;;1.00;1.00;;;;;4.28;80.05;97789.28;5030849;28;8902;-54
2021/12/08 01:54:29;;;;;;;;;0.00;0.00;;;;;4.24;80.81;97788.72;5028657;28;8859;-54
2021/12/08 01:56:57;;;;;;;;;0.40;0.40;;;;;4.22;80.70;97776.66;5034274;28;8827;-53
2021/12/08 01:59:25;;;;;;;;;0.00;0.00;;;;;4.21;80.92;97785.53;5049289;28;8841;-54
2021/12/08 02:01:53;;;;;;;;;1.00;0.00;;;;;4.20;80.65;97778.59;5048785;28;8848;-55
2021/12/08 02:04:20;;;;;;;;;0.00;0.00;;;;;4.18;80.71;97780.56;5050481;28;8867;-54
2021/12/08 02:06:48;;;;;;;;;3.00;2.60;;;;;4.18;81.15;97797.16;5049746;28;8853;-53
2021/12/08 02:09:16;;;;;;;;;0.00;0.00;;;;;4.19;81.39;97784.84;5047736;28;8838;-53
2021/12/08 02:11:45;;;;;;;;;0.00;0.00;;;;;4.21;81.56;97785.53;5049808;28;8977;-53
2021/12/08 02:14:12;;;;;;;;;0.00;0.00;;;;;4.25;81.14;97802.75;5049345;28;8857;-54
2021/12/08 02:16:40;;;;;;;;;0.00;0.00;;;;;4.29;80.91;97789.16;5049035;28;8872;-53
2021/12/08 02:19:08;;;;;;;;;0.00;0.00;;;;;4.34;80.82;97788.75;5050485;28;8941;-54
2021/12/08 02:21:36;;;;;;;;;0.00;0.00;;;;;4.36;80.62;97784.19;5051461;28;8846;-54
2021/12/08 02:24:03;;;;;;;;;0.00;0.00;;;;;4.38;81.10;97782.22;5054048;28;8850;-54
2021/12/08 02:26:31;;;;;;;;;0.00;0.00;;;;;4.39;81.27;97797.91;5052420;28;8838;-54
2021/12/08 02:29:01;;;;;;;;;1.00;1.00;;;;;4.41;81.25;97800.41;5033524;28;8952;-54
2021/12/08 02:31:35;;;;;;;;;0.40;0.40;;;;;4.47;80.54;97799.84;5033670;28;8849;-54
2021/12/08 02:47:55;;;;;;;;;1.00;1.00;;;;;4.90;80.19;97805.56;5032764;28;9011;-53
2021/12/08 02:50:23;;;;;;;;;0.00;0.00;;;;;4.96;79.85;97826.09;5033213;28;8936;-54
2021/12/08 02:52:51;;;;;;;;;0.00;0.00;;;;;4.99;80.13;97825.81;5033722;28;9818;-54
2021/12/08 02:55:18;;;;;;;;;0.20;0.20;;;;;5.02;79.51;97826.34;5032027;28;8891;-54
2021/12/08 02:57:46;;;;;;;;;0.00;0.00;;;;;5.05;79.63;97835.81;5032797;28;8844;-55
2021/12/08 03:00:14;;;;;;;;;0.00;0.00;;;;;5.08;79.61;97825.00;5033289;28;8875;-54
2021/12/08 03:02:42;;;;;;;;;0.00;0.00;;;;;5.10;80.01;97823.84;5033188;28;8868;-54
2021/12/08 03:05:10;;;;;;;;;1.00;1.00;;;;;5.13;79.38;97825.38;5032620;28;8964;-54
2021/12/08 03:07:37;;;;;;;;;0.00;0.00;;;;;5.15;79.31;97831.34;5033266;28;8848;-54
2021/12/08 03:10:06;;;;;;;;;1.00;1.00;;;;;5.16;79.41;97827.75;5032744;28;8863;-55
2021/12/08 03:12:33;;;;;;;;;1.20;1.20;;;;;5.18;79.66;97820.53;5032840;28;9551;-54
2021/12/08 03:15:01;;;;;;;;;0.00;0.00;;;;;5.20;79.49;97810.66;5031602;28;9564;-54
2021/12/08 03:17:29;;;;;;;;;1.00;0.40;;;;;5.21;79.45;97820.22;5030620;28;8864;-54
2021/12/08 03:19:57;;;;;;;;;2.20;1.80;;;;;5.25;79.24;97821.63;5032297;28;8850;-54
2021/12/08 03:22:25;;;;;;;;;3.00;1.00;;;;;5.28;79.51;97810.78;5041409;28;8846;-54
2021/12/08 03:24:53;;;;;;;;;3.00;1.00;;;;;5.33;79.35;97814.66;5052124;28;8962;-54
2021/12/08 03:27:27;;;;;;;;;1.00;1.00;;;;;5.36;79.10;97818.81;5052426;28;8868;-54
2021/12/08 03:29:59;;;;;;;;;0.00;0.00;;;;;5.40;79.04;97817.56;5053093;28;8960;-54
2021/12/08 03:32:31;;;;;;;;;0.00;0.00;;;;;5.42;79.29;97815.63;5051928;28;8842;-54
2021/12/08 03:34:59;;;;;;;;;0.00;0.00;;;;;5.44;79.00;97826.84;5052028;28;8854;-54
2021/12/08 03:37:27;;;;;;;;;1.00;1.00;;;;;5.47;79.09;97827.41;5051295;28;8976;-54
2021/12/08 03:39:55;;;;;;;;;0.60;0.60;;;;;5.49;79.49;97825.47;5051836;28;8835;-54
2021/12/08 03:42:23;;;;;;;;;1.00;1.00;;;;;5.52;78.91;97826.97;5051192;28;8902;-55
2021/12/08 03:44:53;;;;;;;;;1.60;0.80;;;;;5.55;79.22;97832.00;5051025;28;8830;-54
2021/12/08 03:47:26;;;;;;;;;0.00;0.00;;;;;5.54;79.22;97820.59;5052054;28;8846;-54
2021/12/08 03:49:54;;;;;;;;;1.00;1.00;;;;;5.57;78.95;97828.22;5050533;28;8847;-54
2021/12/08 03:52:21;;;;;;;;;3.00;3.00;;;;;5.59;79.28;97833.34;5037830;28;8856;-55
2021/12/08 03:54:49;;;;;;;;;2.60;2.20;;;;;5.61;78.67;97820.88;5031274;28;8848;-54
2021/12/08 03:57:17;;;;;;;;;0.80;0.80;;;;;5.64;78.67;97831.13;5031300;28;8856;-55
2021/12/08 03:59:44;;;;;;;;;1.00;1.00;;;;;5.64;79.14;97834.59;5032058;28;8995;-54
2021/12/08 04:02:12;;;;;;;;;1.00;1.00;;;;;5.65;78.99;97830.16;5030789;28;8841;-54
2021/12/08 04:04:44;;;;;;;;;0.00;0.00;;;;;5.64;79.05;97839.88;5031215;28;8979;-54
2021/12/08 04:07:14;;;;;;;;;1.00;1.00;;;;;5.65;78.93;97843.34;5030822;28;8832;-54
2021/12/08 04:09:44;;;;;;;;;0.00;0.00;;;;;5.65;79.27;97841.56;5031268;28;9011;-54
2021/12/08 04:12:12;;;;;;;;;1.00;1.00;;;;;5.67;78.99;97857.22;5031460;28;8853;-54
2021/12/08 04:14:39;;;;;;;;;2.20;2.20;;;;;5.66;79.47;97847.66;5031350;28;8860;-54
2021/12/08 04:17:07;;;;;;;;;0.20;0.20;;;;;5.66;79.12;97848.50;5031186;28;8868;-54
2021/12/08 04:19:35;;;;;;;;;0.00;0.00;;;;;5.67;79.55;97844.88;5030170;28;8852;-54
2021/12/08 04:22:03;;;;;;;;;2.80;1.00;;;;;5.68;78.88;97859.72;5038295;28;8843;-54
2021/12/08 04:24:31;;;;;;;;;0.00;0.00;;;;;5.71;78.94;97850.69;5050845;28;8842;-54
2021/12/08 04:26:58;;;;;;;;;0.00;0.00;;;;;5.73;79.44;97848.75;5051522;28;8935;-55
2021/12/08 04:29:26;;;;;;;;;2.20;1.00;;;;;5.73;79.27;97851.38;5051354;28;9323;-54
2021/12/08 04:31:54;;;;;;;;;2.20;2.20;;;;;5.73;79.47;97854.03;5051782;28;9626;-55
2021/12/08 04:34:24;;;;;;;;;0.40;0.40;;;;;5.71;79.09;97858.63;5051668;28;8846;-54
2021/12/08 04:36:52;;;;;;;;;3.00;3.00;;;;;5.71;79.10;97858.63;5051418;28;8842;-54
2021/12/08 04:39:23;;;;;;;;;0.00;0.00;;;;;5.72;79.20;97863.75;5050576;28;8847;-54
2021/12/08 04:41:57;;;;;;;;;1.80;1.80;;;;;5.72;79.40;97884.03;5050130;28;8853;-54
2021/12/08 04:44:32;;;;;;;;;1.00;0.80;;;;;5.72;79.47;97853.19;5050041;28;8896;-54
2021/12/08 04:50:15;;;;;;;;;1.00;1.00;;;;;5.74;79.56;97839.84;5029641;28;8856;-55
2021/12/08 04:53:08;;;;;;;;;1.00;1.00;;;;;5.74;79.77;97845.97;5031643;28;8856;-54
2021/12/08 05:01:17;;;;;;;;;1.80;1.00;;;;;5.72;79.78;97836.50;5030009;28;8836;-54
2021/12/08 05:04:03;;;;;;;;;1.40;1.00;;;;;5.70;79.70;97838.47;5029842;28;8851;-55
2021/12/08 05:15:26;;;;;;;;;0.60;0.60;;;;;5.68;79.78;97849.16;5049378;28;8871;-83
2021/12/08 05:17:53;;;;;;;;;0.60;0.60;;;;;5.68;79.52;97849.16;5049300;28;8846;-83
2021/12/08 05:20:22;;;;;;;;;0.80;0.80;;;;;5.69;80.04;97834.19;5049214;28;8963;-84
2021/12/08 05:22:50;;;;;;;;;1.40;1.40;;;;;5.70;79.51;97849.84;5048514;28;8865;-81
2021/12/08 05:25:18;;;;;;;;;1.00;1.00;;;;;5.72;79.28;97847.06;5048519;28;9523;-84
2021/12/08 05:27:46;;;;;;;;;1.00;1.00;;;;;5.73;80.09;97848.75;5049886;28;8853;-82
2021/12/08 05:30:14;;;;;;;;;2.60;1.80;;;;;5.74;79.66;97856.53;5048389;28;8892;-82
2021/12/08 05:32:42;;;;;;;;;1.00;1.00;;;;;5.77;79.96;97858.88;5047160;28;8862;-83
2021/12/08 05:35:10;;;;;;;;;3.20;1.00;;;;;5.77;79.87;97850.13;5047607;28;8952;-85
2021/12/08 05:37:37;;;;;;;;;0.00;0.00;;;;;5.78;79.67;97862.34;5049562;28;8856;-83
2021/12/08 05:40:05;;;;;;;;;0.00;0.00;;;;;5.80;79.75;97866.56;5048118;28;8864;-83
2021/12/08 05:42:35;;;;;;;;;3.60;3.00;;;;;5.80;79.57;97871.00;5048360;28;9528;-83
2021/12/08 05:45:02;;;;;;;;;0.80;0.40;;;;;5.79;79.89;97878.09;5048627;28;8838;-83
2021/12/08 05:47:30;;;;;;;;;1.00;1.00;;;;;5.81;80.22;97880.56;5049447;28;8876;-83
2021/12/08 05:49:58;;;;;;;;;1.00;1.00;;;;;5.81;79.57;97888.50;5048525;28;8853;-83
2021/12/08 05:52:26;;;;;;;;;0.80;0.80;;;;;5.79;79.53;97885.13;5047792;28;8855;-82
2021/12/08 05:54:58;;;;;;;;;4.80;3.80;;;;;5.78;79.75;97889.56;5050120;28;8846;-83
2021/12/08 05:57:26;;;;;;;;;1.00;1.00;;;;;5.78;80.14;97891.41;5051063;28;9605;-83
2021/12/08 05:59:54;;;;;;;;;0.80;0.80;;;;;5.75;80.08;97900.44;5051604;28;8846;-83
2021/12/08 06:02:21;;;;;;;;;1.80;1.80;;;;;5.77;79.88;97903.75;5051977;28;8866;-82
2021/12/08 06:04:49;;;;;;;;;0.00;0.00;;;;;5.78;79.55;97904.59;5050831;28;8866;-82
2021/12/08 06:07:20;;;;;;;;;1.80;1.00;;;;;5.83;79.67;97912.94;5050524;28;8870;-82
2021/12/08 06:09:48;;;;;;;;;1.80;1.80;;;;;5.88;80.05;97911.56;5050346;28;8858;-83
2021/12/08 06:12:18;;;;;;;;;1.00;1.00;;;;;5.94;79.90;97908.34;5048407;28;8838;-81
2021/12/08 06:14:46;;;;;;;;;3.00;3.00;;;;;5.97;79.68;97915.97;5046871;28;8846;-81
2021/12/08 06:17:14;;;;;;;;;1.80;0.20;;;;;6.01;79.44;97908.59;5045866;28;8866;-83
2021/12/08 06:19:41;;;;;;;;;1.00;1.00;;;;;5.99;79.38;97902.63;5048733;28;9237;-83
2021/12/08 06:22:09;;;;;;;;;1.00;1.00;;;;;5.95;79.26;97906.53;5049037;28;8870;-83
2021/12/08 06:24:37;;;;;;;;;0.00;0.00;;;;;5.89;79.55;97904.44;5047506;28;8850;-83
2021/12/08 06:27:05;;;;;;;;;1.00;1.00;;;;;5.82;80.20;97916.56;5048433;28;8978;-84
2021/12/08 06:29:33;;;;;;;;;2.20;1.40;;;;;5.77;79.83;97913.50;5049179;28;8846;-83
2021/12/08 06:32:01;;;;;;;;;0.80;0.00;;;;;5.73;79.98;97910.31;5046688;28;8878;-83
2021/12/08 06:34:29;;;;;;;;;0.00;0.00;;;;;5.70;80.29;97925.59;5045280;28;8912;-83
2021/12/08 06:36:56;;;;;;;;;0.80;0.80;;;;;5.66;80.37;97926.84;5046072;28;9587;-83
2021/12/08 06:39:24;;;;;;;;;1.00;1.00;;;;;5.63;80.58;97911.31;5046247;28;8834;-83
2021/12/08 06:41:52;;;;;;;;;0.00;0.00;;;;;5.63;80.51;97908.66;5046372;28;8870;-83
2021/12/08 06:44:19;;;;;;;;;2.60;2.60;;;;;5.60;80.62;97901.84;5045116;28;8851;-83
2021/12/08 06:46:47;;;;;;;;;1.40;1.40;;;;;5.60;80.41;97909.75;5045228;28;9579;-83
2021/12/08 06:49:16;;;;;;;;;0.80;0.80;;;;;5.59;80.24;97904.63;5044777;28;8850;-81
2021/12/08 06:51:47;;;;;;;;;1.00;1.00;;;;;5.60;80.14;97914.19;5044363;28;8993;-83
2021/12/08 06:54:14;;;;;;;;;3.80;3.20;;;;;5.61;80.60;97914.06;5045577;28;8888;-83
2021/12/08 06:56:42;;;;;;;;;0.20;0.20;;;;;5.64;80.24;97907.69;5043220;28;9016;-84
2021/12/08 06:59:10;;;;;;;;;3.60;3.00;;;;;5.67;80.40;97907.38;5043374;28;8846;-82
2021/12/08 07:01:43;;;;;;;;;3.20;3.20;;;;;5.66;80.39;97896.00;5042525;28;8900;-84
2021/12/08 07:04:25;;;;;;;;;0.40;0.40;;;;;5.68;80.17;97906.44;5042544;28;8839;-83
2021/12/08 07:06:59;;;;;;;;;0.00;0.00;;;;;5.70;80.02;97915.84;5040831;28;8859;-82
2021/12/08 07:09:27;;;;;;;;;0.20;0.20;;;;;5.72;80.16;97899.88;5040042;28;8978;-83
2021/12/08 07:11:54;;;;;;;;;1.40;1.40;;;;;5.72;79.95;97915.72;5038264;28;8862;-84
2021/12/08 07:14:22;;;;;;;;;0.20;0.20;;;;;5.70;79.79;97918.50;5041345;28;8910;-83
2021/12/08 07:16:50;;;;;;;;;0.80;0.80;;;;;5.72;80.30;97926.28;5043242;28;8887;-82
2021/12/08 07:19:24;;;;;;;;;0.00;0.00;;;;;5.74;80.32;97925.16;5041173;28;8854;-83
2021/12/08 07:21:53;;;;;;;;;0.00;0.00;;;;;5.74;79.74;97924.31;5040376;28;8989;-81
2021/12/08 07:24:21;;;;;;;;;3.80;3.00;;;;;5.75;80.26;97936.56;5041722;28;8858;-80
2021/12/08 07:26:51;;;;;;;;;0.80;0.00;;;;;5.73;79.88;97939.34;5041259;28;8866;-83
2021/12/08 07:29:19;;;;;;;;;0.80;0.80;;;;;5.73;79.86;97933.22;5043600;28;8850;-82
2021/12/08 07:31:47;;;;;;;;;1.00;1.00;;;;;5.74;80.04;97934.88;5040691;28;8964;-81
2021/12/08 07:34:19;;;;;;;;;0.60;0.60;;;;;5.73;80.48;97943.78;5041194;28;8850;-81
2021/12/08 07:36:47;;;;;;;;;1.00;1.00;;;;;5.73;79.99;97949.91;5042422;28;8873;-81
2021/12/08 07:39:18;;;;;;;;;1.00;1.00;;;;;5.73;80.19;97957.00;5038030;28;9020;-81
2021/12/08 07:41:48;;;;;;;;;1.00;1.00;;;;;5.73;80.06;97963.13;5040324;28;8854;-80
2021/12/08 07:44:16;;;;;;;;;1.00;1.00;;;;;5.73;80.11;97960.47;5043029;28;8846;-80
2021/12/08 07:46:43;;;;;;;;;1.20;0.60;;;;;5.74;80.08;97975.34;5040857;28;8854;-81
2021/12/08 07:49:11;;;;;;;;;3.00;1.00;;;;;5.75;80.00;97984.06;5041291;28;8862;-82
2021/12/08 07:51:39;;;;;;;;;0.00;0.00;;;;;5.73;80.00;97986.03;5042687;28;8988;-80
2021/12/08 07:54:07;;;;;;;;;1.00;1.00;;;;;5.74;79.61;97992.97;5040957;28;8863;-81
2021/12/08 07:56:35;;;;;;;;;1.00;0.00;;;;;5.75;80.11;97997.28;5038446;28;8907;-83
2021/12/08 07:59:03;;;;;;;;;0.00;0.00;;;;;5.79;80.46;97996.03;5041182;28;8878;-80
2021/12/08 08:01:30;;;;;;;;;0.00;0.00;;;;;5.82;80.07;98001.91;5041154;28;9152;-80
2021/12/08 08:03:59;;;;;;;;;1.00;0.20;;;;;5.84;80.26;97989.38;5040735;28;8882;-81
2021/12/08 08:06:27;;;;;;;;;1.40;1.40;;;;;5.86;79.74;97997.19;5041684;28;8850;-81
2021/12/08 08:08:54;;;;;;;;;1.00;1.00;;;;;5.89;79.69;98000.38;5040815;28;8870;-80
2021/12/08 08:11:23;;;;;;;;;1.00;1.00;;;;;5.94;79.63;97992.03;5043040;28;9291;-81
2021/12/08 08:13:50;;;;;;;;;0.80;0.80;;;;;5.98;79.43;98001.31;5041878;28;8878;-82
2021/12/08 08:16:18;;;;;;;;;0.00;0.00;;;;;6.01;79.30;98001.06;5039169;28;9262;-82
2021/12/08 08:18:48;;;;;;;;;0.40;0.20;;;;;6.02;78.85;98008.84;5044694;28;8893;-80
2021/12/08 08:21:16;;;;;;;;;1.00;1.00;;;;;6.04;78.89;98006.03;5046947;28;9570;-80
2021/12/08 08:23:44;;;;;;;;;0.00;0.00;;;;;6.04;79.25;98004.25;5044511;28;9603;-81
2021/12/08 08:26:12;;;;;;;;;1.00;1.00;;;;;6.06;79.39;98019.97;5044640;28;9517;-80
2021/12/08 08:28:40;;;;;;;;;0.00;0.00;;;;;6.06;79.31;98014.69;5040081;28;8851;-81
2021/12/08 08:31:08;;;;;;;;;0.40;0.40;;;;;6.05;78.88;98013.00;5039304;28;9144;-81
2021/12/08 08:33:36;;;;;;;;;0.80;0.80;;;;;6.04;79.15;97998.13;5038021;28;8862;-80
2021/12/08 08:36:07;;;;;;;;;3.00;1.00;;;;;6.05;79.06;97997.97;5038879;28;8900;-80
2021/12/08 08:38:35;;;;;;;;;3.00;1.00;;;;;6.07;79.15;98000.50;5040393;28;9234;-80
2021/12/08 08:41:02;;;;;;;;;0.00;0.00;;;;;6.10;79.15;98002.84;5036894;28;9194;-82
2021/12/08 08:43:30;;;;;;;;;0.60;0.00;;;;;6.13;79.00;98010.47;5039493;28;8916;-81
2021/12/08 08:45:58;;;;;;;;;0.00;0.00;;;;;6.18;79.09;98008.25;5038953;28;8854;-81
2021/12/08 08:48:28;;;;;;;;;0.00;0.00;;;;;6.21;78.85;98013.25;5033554;28;8834;-80
2021/12/08 08:50:56;;;;;;;;;0.60;0.60;;;;;6.22;78.46;98012.28;5037736;28;8839;-81
2021/12/08 08:53:24;;;;;;;;;1.00;0.00;;;;;6.25;78.51;98017.28;5038055;28;8877;-80
2021/12/08 08:55:53;;;;;;;;;0.60;0.00;;;;;6.26;78.35;98016.28;5036534;28;8842;-80
2021/12/08 08:58:20;;;;;;;;;1.80;1.80;;;;;6.27;78.99;98012.66;5035684;28;9521;-79
2021/12/08 09:00:48;;;;;;;;;3.00;1.40;;;;;6.28;78.40;98022.25;5035443;28;8868;-80
2021/12/08 09:03:16;;;;;;;;;0.00;0.00;;;;;6.32;78.68;98028.94;5034883;28;9015;-80
2021/12/08 09:05:44;;;;;;;;;0.00;0.00;;;;;6.34;78.22;98030.47;5036083;28;9282;-80
2021/12/08 09:08:13;;;;;;;;;1.00;0.60;;;;;6.38;77.98;98031.03;5032571;28;8854;-79
2021/12/08 09:10:43;;;;;;;;;1.00;0.00;;;;;6.42;78.48;98035.03;5033359;28;8855;-80
2021/12/08 09:13:11;;;;;;;;;0.00;0.00;;;;;6.45;78.21;98022.34;5033975;28;8940;-80
2021/12/08 09:15:39;;;;;;;;;0.00;0.00;;;;;6.50;77.71;98029.84;5034836;28;8985;-80
2021/12/08 09:18:08;;;;;;;;;0.00;0.00;;;;;6.53;78.10;98029.59;5033091;28;8872;-80
2021/12/08 09:20:35;;;;;;;;;1.00;1.00;;;;;6.56;77.96;98032.78;5033896;28;8851;-80
2021/12/08 09:23:03;;;;;;;;;0.60;0.60;;;;;6.58;77.98;98030.81;5034462;28;8858;-80
2021/12/08 09:25:31;;;;;;;;;0.80;0.80;;;;;6.59;78.13;98024.53;5036384;28;8854;-81
2021/12/08 09:27:59;;;;;;;;;0.00;0.00;;;;;6.61;77.70;98022.56;5035688;28;9647;-80
2021/12/08 09:30:32;;;;;;;;;0.00;0.00;;;;;6.67;77.47;98034.41;5039221;28;8969;-81
2021/12/08 09:33:01;;;;;;;;;0.40;0.40;;;;;6.72;77.14;98040.09;5036197;28;8858;-80
2021/12/08 09:35:32;;;;;;;;;0.00;0.00;;;;;6.79;77.26;98049.09;5038240;28;8888;-81
2021/12/08 09:37:59;;;;;;;;;0.00;0.00;;;;;6.84;77.23;98052.97;5034310;28;8878;-80
2021/12/08 09:40:32;;;;;;;;;0.00;0.00;;;;;6.90;76.90;98054.22;5035541;28;8863;-80
2021/12/08 09:43:01;;;;;;;;;1.00;1.00;;;;;6.94;76.86;98060.88;5038055;28;8858;-81
2021/12/08 09:45:29;;;;;;;;;0.80;0.40;;;;;6.96;77.18;98069.53;5039388;28;8900;-81
2021/12/08 09:47:57;;;;;;;;;0.40;0.20;;;;;6.95;76.88;98068.69;5042345;28;8862;-80
2021/12/08 09:50:25;;;;;;;;;0.00;0.00;;;;;6.96;77.08;98064.25;5041750;28;8858;-80
2021/12/08 09:52:53;;;;;;;;;0.00;0.00;;;;;6.99;76.61;98063.94;5041839;28;8862;-82
2021/12/08 09:55:21;;;;;;;;;1.00;1.00;;;;;7.04;76.84;98045.81;5036862;28;8885;-80
2021/12/08 09:57:49;;;;;;;;;0.00;0.00;;;;;7.08;76.17;98052.47;5031868;28;8866;-81
2021/12/08 10:00:19;;;;;;;;;0.50;0.50;;;;;7.13;76.13;98037.00;5034110;28;8859;-80
2021/12/08 10:02:47;;;;;;;;;2.00;2.00;;;;;7.18;75.87;98048.78;5036234;28;8847;-80
2021/12/08 10:05:15;;;;;;;;;0.80;0.80;;;;;7.19;75.97;98037.22;5035330;28;8878;-80
2021/12/08 10:07:43;;;;;;;;;7.40;1.40;;;;;7.20;75.82;98038.88;5036749;28;9175;-81
2021/12/08 10:10:12;;;;;;;;;1.00;1.00;;;;;7.24;75.85;98036.78;5034512;28;8862;-80
2021/12/08 10:12:41;;;;;;;;;0.25;0.25;;;;;7.26;75.63;98058.63;5039239;28;8874;-83
2021/12/08 10:15:09;;;;;;;;;1.00;1.00;;;;;7.28;75.76;98054.03;5037758;28;8971;-80
2021/12/08 10:17:36;;;;;;;;;0.00;0.00;;;;;7.27;75.70;98060.31;5036401;28;9147;-82
2021/12/08 10:20:04;;;;;;;;;0.25;0.25;;;;;7.28;75.20;98064.63;5042211;28;9702;-80
2021/12/08 10:22:32;;;;;;;;;0.00;0.00;;;;;7.29;75.58;98067.09;5039684;28;8855;-81
2021/12/08 10:25:00;;;;;;;;;2.20;1.00;;;;;7.30;75.19;98068.81;5039795;28;8851;-82
2021/12/08 10:27:29;;;;;;;;;0.00;0.00;;;;;7.32;75.18;98073.94;5039677;28;8919;-81
2021/12/08 10:29:57;;;;;;;;;0.00;0.00;;;;;7.34;75.37;98075.44;5039125;28;8854;-80
2021/12/08 10:32:25;;;;;;;;;1.00;0.00;;;;;7.33;75.14;98068.50;5038365;28;8862;-80
2021/12/08 10:35:05;;;;;;;;;0.00;0.00;;;;;7.32;74.65;98058.88;5038438;28;8858;-80
2021/12/08 10:37:32;;;;;;;;;0.00;0.00;;;;;7.34;74.98;98064.84;5036631;28;8924;-80
2021/12/08 10:40:00;;;;;;;;;0.50;0.50;;;;;7.36;75.01;98062.88;5034496;28;8846;-81
2021/12/08 10:42:28;;;;;;;;;0.00;0.00;;;;;7.39;75.20;98072.34;5032107;28;9297;-81
2021/12/08 10:45:01;;;;;;;;;1.00;1.00;;;;;7.40;75.11;98074.03;5036638;28;8878;-80
2021/12/08 10:47:28;;;;;;;;;1.00;0.50;;;;;7.41;75.05;98083.63;5034451;28;8862;-80
2021/12/08 10:55:30;;;;;;;;;0.25;0.00;;;;;7.41;74.62;98078.31;5038363;28;8850;-82
2021/12/08 10:57:59;;;;;;;;;1.00;1.00;;;;;7.40;74.98;98071.38;5041184;28;8858;-82
2021/12/08 11:00:28;;;;;;;;;0.00;0.00;;;;;7.40;75.27;98069.56;5038258;28;8985;-80
2021/12/08 11:03:04;;;;;;;;;0.25;0.25;;;;;7.43;74.89;98073.75;5034066;28;8870;-81
2021/12/08 11:05:37;;;;;;;;;0.00;0.00;;;;;7.47;74.71;98067.16;5032087;28;8888;-81
2021/12/08 11:08:04;;;;;;;;;0.00;0.00;;;;;7.51;74.42;98065.88;5031719;28;9199;-81
2021/12/08 11:10:32;;;;;;;;;1.00;0.20;;;;;7.56;74.53;98067.09;5034887;28;8877;-83
2021/12/08 11:13:00;;;;;;;;;3.00;0.50;;;;;7.60;74.46;98062.34;5035301;28;9134;-81
2021/12/08 11:15:28;;;;;;;;;3.00;2.40;;;;;7.62;74.34;98070.97;5035902;28;9650;-83
2021/12/08 11:17:55;;;;;;;;;4.00;4.00;;;;;7.65;74.53;98071.50;5035156;28;8932;-81
2021/12/08 11:20:31;;;;;;;;;1.00;1.00;;;;;7.66;74.50;98059.91;5034266;28;8855;-82
2021/12/08 11:23:00;;;;;;;;;0.25;0.25;;;;;7.67;74.63;98052.81;5031707;28;9755;-83
2021/12/08 11:25:28;;;;;;;;;2.50;1.00;;;;;7.67;74.47;98061.59;5035351;28;8854;-80
2021/12/08 11:28:02;;;;;;;;;2.20;1.00;;;;;7.67;74.23;98066.06;5036146;28;8884;-81
2021/12/08 11:30:32;;;;;;;;;3.60;3.60;;;;;7.66;74.29;98072.34;5035545;28;9660;-81
2021/12/08 11:32:59;;;;;;;;;0.50;0.50;;;;;7.67;74.28;98066.06;5030266;28;8866;-81
2021/12/08 11:35:32;;;;;;;;;0.75;0.25;;;;;7.66;74.14;98067.84;5034820;28;9193;-81
2021/12/08 11:38:00;;;;;;;;;1.00;1.00;;;;;7.66;74.13;98080.28;5033923;28;8896;-82
2021/12/08 11:40:28;;;;;;;;;1.00;1.00;;;;;7.65;74.19;98081.28;5034333;28;8923;-81
2021/12/08 11:42:55;;;;;;;;;0.00;0.00;;;;;7.62;74.45;98086.84;5037102;28;9564;-81
2021/12/08 11:45:23;;;;;;;;;2.40;2.20;;;;;7.61;74.37;98093.13;5036432;28;8862;-81
2021/12/08 11:47:51;;;;;;;;;0.25;0.25;;;;;7.57;74.17;98097.06;5037887;28;9151;-82
2021/12/08 11:50:22;;;;;;;;;1.00;1.00;;;;;7.53;74.04;98101.84;5034175;28;8858;-83
2021/12/08 11:52:50;;;;;;;;;0.00;0.00;;;;;7.52;74.47;98099.31;5034494;28;8850;-81
2021/12/08 11:55:18;;;;;;;;;1.00;1.00;;;;;7.52;74.42;98096.69;5037486;28;8870;-81
2021/12/08 11:57:47;;;;;;;;;1.00;0.00;;;;;7.52;74.46;98099.31;5037135;28;8905;-81
2021/12/08 12:00:18;;;;;;;;;0.00;0.00;;;;;7.53;74.15;98096.53;5038533;28;8896;-83
2021/12/08 12:02:46;;;;;;;;;1.00;1.00;;;;;7.54;74.04;98092.91;5032770;28;8959;-81
2021/12/08 12:05:14;;;;;;;;;1.00;1.00;;;;;7.57;73.38;98097.88;5035645;28;9506;-83
2021/12/08 12:07:42;;;;;;;;;0.50;0.00;;;;;7.58;73.45;98094.25;5035736;28;8855;-81
2021/12/08 12:10:09;;;;;;;;;1.00;1.00;;;;;7.65;73.77;98105.94;5029980;28;9278;-81
2021/12/08 12:12:39;;;;;;;;;0.75;0.75;;;;;7.74;72.99;98097.06;5040113;28;9315;-82
2021/12/08 12:15:07;;;;;;;;;1.20;0.80;;;;;7.82;72.88;98095.34;5039366;28;8874;-81
2021/12/08 12:17:35;;;;;;;;;0.25;0.00;;;;;7.90;72.18;98089.31;5036203;28;9518;-81
2021/12/08 12:20:03;;;;;;;;;3.25;1.00;;;;;8.00;72.17;98090.06;5036158;28;8870;-81
2021/12/08 12:22:30;;;;;;;;;2.20;2.20;;;;;8.12;71.96;98083.53;5038757;28;8854;-82
2021/12/08 12:24:58;;;;;;;;;1.00;1.00;;;;;8.15;71.90;98078.75;5035162;28;8982;-81
2021/12/08 12:27:26;;;;;;;;;0.00;0.00;;;;;8.10;71.81;98074.91;5038543;28;9151;-81
2021/12/08 12:29:54;;;;;;;;;0.50;0.50;;;;;8.05;71.49;98080.66;5036474;28;9528;-82
2021/12/08 12:32:22;;;;;;;;;0.00;0.00;;;;;7.98;71.73;98071.66;5036368;28;9190;-82
2021/12/08 12:34:53;;;;;;;;;0.25;0.00;;;;;7.92;72.17;98082.84;5039865;28;9156;-81
2021/12/08 12:37:21;;;;;;;;;1.00;0.50;;;;;7.89;71.80;98075.22;5036912;28;8862;-80
2021/12/08 12:39:49;;;;;;;;;0.50;0.50;;;;;7.87;71.86;98079.84;5035099;28;9521;-81
2021/12/08 12:42:18;;;;;;;;;0.00;0.00;;;;;7.86;71.64;98072.88;5039110;28;9296;-81